Hauptseite
METAR-TAF:

METAR-TAF

Flughäfen :

Militärflugplatz Cazaux

Cazaux, Frankreich

Breite: 44-32N, Länge: 001-08W, Höhe: 25 m

Beobachtung

Neuester Wetterbericht von vor 11 Minuten, um 08:30 UTC
Wind 5 kt aus Ost, variierte zwischen Nordost und Ost/Südost
Temperatur 17°C
Luftfeuchtigkeit 68%
Luftdruck 1021 hPa
Sichtweite 10 km oder mehr
keine Wolken unter 1500 m und keine Kumulonimbus oder Gewitterwolken

METAR: LFBC 090830Z AUTO 08005KT 050V110 CAVOK 17/11 Q1021 NOSIG

Zeit: 10:41 (08:41 UTC)

Prognose

Neuester Wetterbericht von vor 41 Minuten, um 08:00 UTC
Gültige Prognose vom 09 um 09 UTC bis 10 um 09 UTC
Wind 6 kt aus Ost
Sichtweite 10 km oder mehr
keine Wolken unter 1500 m und keine Kumulonimbus oder Gewitterwolken

TAF: LFBC 090800Z 0909/1009 09006KT CAVOK

Wetterbeobachtungen und Prognosen von mehr als 4000 Flughäfen (METAR und TAF Bericht).

Die verfügbaren Stationen werden durch gelbe und rote Markierungen auf der Karte dargestellt.

Führen Sie die Maus auf sie, um den Namen der Station zu sehen.

Darauf klicken, um die Beobachtung von Wetterbeobachtungen und Prognosen zu sehen.

Um die Karte zu ändern : klicken Sie auf den grünen Tasten mit einem schwarzen Kreuz Zum Vergrößern, auf den grünen Button mit einem Gedankenstrich zu verkleinern, oder auf die grünen Pfeile für benachbarte Karten.


METAR-TAF: